createdAt,value
2022-11-26T00:02:21.267Z,2.90
2022-11-26T00:05:25.472Z,2.90
2022-11-26T00:08:31.922Z,3.00
2022-11-26T00:11:36.228Z,3.03
2022-11-26T00:14:39.694Z,3.90
2022-11-26T00:17:42.805Z,3.63
2022-11-26T00:20:46.698Z,3.17
2022-11-26T00:23:49.867Z,3.07
2022-11-26T00:26:54.765Z,3.73
2022-11-26T00:29:57.758Z,3.80
2022-11-26T00:33:01.484Z,3.03
2022-11-26T00:36:13.350Z,3.90
2022-11-26T00:39:19.866Z,2.93
2022-11-26T00:42:24.700Z,3.10
2022-11-26T00:45:29.654Z,2.63
2022-11-26T00:48:32.623Z,3.40
2022-11-26T00:51:35.793Z,3.57
2022-11-26T00:54:38.906Z,3.33
2022-11-26T00:57:43.653Z,2.93
2022-11-26T01:00:46.701Z,3.50
2022-11-26T01:03:49.992Z,2.73
2022-11-26T01:06:53.069Z,3.37
2022-11-26T01:09:56.011Z,3.53
2022-11-26T01:13:00.319Z,3.50
2022-11-26T01:16:11.175Z,3.50
2022-11-26T01:19:16.123Z,3.73
2022-11-26T01:22:22.935Z,3.80
2022-11-26T01:25:27.632Z,3.40
2022-11-26T01:28:31.937Z,3.60
2022-11-26T01:31:34.934Z,4.60
2022-11-26T01:34:38.338Z,4.33
2022-11-26T01:37:41.557Z,4.30
2022-11-26T01:40:55.206Z,4.17
2022-11-26T01:44:00.684Z,4.47
2022-11-26T01:47:18.783Z,4.33
2022-11-26T01:50:51.773Z,4.73
2022-11-26T01:53:57.835Z,4.57
2022-11-26T01:57:07.733Z,5.93
2022-11-26T02:00:13.760Z,5.43
2022-11-26T02:03:17.312Z,4.80
2022-11-26T02:06:24.601Z,5.20
2022-11-26T02:09:28.771Z,5.93
2022-11-26T02:12:31.908Z,5.70
2022-11-26T02:15:43.614Z,6.50
2022-11-26T02:18:57.132Z,7.50
2022-11-26T02:22:08.739Z,6.30
2022-11-26T02:25:19.369Z,5.47
2022-11-26T02:28:46.009Z,5.77
2022-11-26T02:31:56.815Z,6.07
2022-11-26T02:35:07.489Z,6.10
2022-11-26T02:38:13.468Z,6.17
2022-11-26T02:41:16.400Z,5.60
2022-11-26T02:44:23.621Z,4.83
2022-11-26T02:47:30.007Z,4.80
2022-11-26T02:50:37.697Z,5.03
2022-11-26T02:53:41.269Z,4.97
2022-11-26T02:56:44.500Z,4.63
2022-11-26T02:59:48.200Z,4.00
2022-11-26T03:02:57.877Z,4.97
2022-11-26T03:06:05.744Z,4.50
2022-11-26T03:09:09.513Z,5.23
2022-11-26T03:12:12.501Z,4.63
2022-11-26T03:15:15.679Z,5.07
2022-11-26T03:18:20.001Z,4.83
2022-11-26T03:21:23.022Z,5.10
2022-11-26T03:24:25.957Z,5.40
2022-11-26T03:27:28.888Z,5.13
2022-11-26T03:30:31.821Z,5.53
2022-11-26T03:33:36.101Z,5.20
2022-11-26T03:36:39.038Z,4.83
2022-11-26T03:39:42.192Z,5.43
2022-11-26T03:42:45.587Z,5.33
2022-11-26T03:45:48.551Z,4.97
2022-11-26T03:48:52.891Z,4.67
2022-11-26T03:51:55.830Z,5.30
2022-11-26T03:54:58.768Z,5.10
2022-11-26T03:58:02.145Z,4.50
2022-11-26T04:01:09.355Z,4.87
2022-11-26T04:04:13.678Z,4.67
2022-11-26T04:07:16.911Z,5.10
2022-11-26T04:10:19.999Z,4.23
2022-11-26T04:13:22.952Z,5.13
2022-11-26T04:16:26.114Z,4.77
2022-11-26T04:19:30.590Z,5.00
2022-11-26T04:22:33.628Z,4.47
2022-11-26T04:25:36.627Z,4.70
2022-11-26T04:28:39.577Z,4.97
2022-11-26T04:31:42.651Z,5.23
2022-11-26T04:34:46.998Z,4.27
2022-11-26T04:37:49.950Z,4.93
2022-11-26T04:40:52.912Z,5.17
2022-11-26T04:43:55.855Z,5.10
2022-11-26T04:46:58.796Z,4.90
2022-11-26T04:50:03.227Z,4.97
2022-11-26T04:53:06.345Z,4.73
2022-11-26T04:56:09.285Z,5.23
2022-11-26T04:59:12.220Z,5.10
2022-11-26T05:02:15.248Z,4.50
2022-11-26T05:05:19.764Z,5.37
2022-11-26T05:08:22.732Z,5.40
2022-11-26T05:11:25.821Z,4.50
2022-11-26T05:14:28.807Z,5.00
2022-11-26T05:17:31.941Z,4.37
2022-11-26T05:20:36.221Z,4.30
2022-11-26T05:23:39.207Z,4.63
2022-11-26T05:26:42.141Z,4.77
2022-11-26T05:29:45.116Z,4.43
2022-11-26T05:32:48.024Z,5.20
2022-11-26T05:35:52.332Z,4.77
2022-11-26T05:38:55.289Z,5.30
2022-11-26T05:41:58.219Z,4.13
2022-11-26T05:45:01.200Z,4.27
2022-11-26T05:48:04.216Z,4.63
2022-11-26T05:51:08.660Z,5.17
2022-11-26T05:54:13.885Z,4.27
2022-11-26T05:57:18.124Z,4.73
2022-11-26T06:00:21.398Z,4.47
2022-11-26T06:03:24.424Z,4.47
2022-11-26T06:06:28.896Z,4.40
2022-11-26T06:09:31.861Z,4.50
2022-11-26T06:12:34.839Z,4.90
2022-11-26T06:15:37.822Z,4.43
2022-11-26T06:18:40.885Z,4.90
2022-11-26T06:21:45.134Z,4.33
2022-11-26T06:24:48.128Z,4.20
2022-11-26T06:27:52.059Z,4.53
2022-11-26T06:30:54.997Z,4.47
2022-11-26T06:33:58.279Z,4.43
2022-11-26T06:37:02.559Z,4.47
2022-11-26T06:40:06.475Z,4.60
2022-11-26T06:43:09.496Z,4.33
2022-11-26T06:46:13.316Z,5.17
2022-11-26T06:49:16.310Z,5.93
2022-11-26T06:52:20.602Z,5.70
2022-11-26T06:55:23.944Z,5.70
2022-11-26T06:58:26.898Z,5.47
2022-11-26T07:01:30.076Z,5.97
2022-11-26T07:04:33.083Z,5.73
2022-11-26T07:07:39.071Z,5.63
2022-11-26T07:10:47.535Z,5.03
2022-11-26T07:13:52.510Z,5.73
2022-11-26T07:16:55.445Z,6.03
2022-11-26T07:19:58.389Z,6.10
2022-11-26T07:23:04.518Z,7.00
2022-11-26T07:26:09.025Z,6.43
2022-11-26T07:29:12.102Z,5.60
2022-11-26T07:32:15.051Z,5.70
2022-11-26T07:35:18.145Z,6.13
2022-11-26T07:38:22.426Z,5.83
2022-11-26T07:41:26.229Z,7.17
2022-11-26T07:44:29.192Z,6.10
2022-11-26T07:47:32.173Z,6.33
2022-11-26T07:50:35.132Z,6.83
2022-11-26T07:53:39.408Z,6.03
2022-11-26T07:56:42.342Z,6.23
2022-11-26T07:59:45.287Z,6.07
2022-11-26T08:02:48.371Z,7.20
2022-11-26T08:05:51.357Z,6.47
2022-11-26T08:08:55.709Z,6.07
2022-11-26T08:11:58.727Z,6.67
2022-11-26T08:15:01.704Z,6.27
2022-11-26T08:18:04.834Z,6.40
2022-11-26T08:21:08.655Z,6.13
2022-11-26T08:24:15.516Z,6.47
2022-11-26T08:27:18.939Z,5.67
2022-11-26T08:30:22.072Z,6.70
2022-11-26T08:33:25.009Z,6.50
2022-11-26T08:36:29.052Z,5.77
2022-11-26T08:39:33.341Z,6.17
2022-11-26T08:42:36.269Z,6.87
2022-11-26T08:45:39.218Z,6.40
2022-11-26T08:48:42.229Z,6.27
2022-11-26T08:51:45.580Z,6.13
2022-11-26T08:54:50.129Z,7.17
2022-11-26T08:57:53.213Z,6.17
2022-11-26T09:00:56.612Z,6.83
2022-11-26T09:04:01.420Z,7.40
2022-11-26T09:07:04.387Z,7.03
2022-11-26T09:10:10.819Z,7.43
2022-11-26T09:13:17.219Z,8.33
2022-11-26T09:16:23.232Z,8.63
2022-11-26T09:19:27.862Z,8.57
2022-11-26T09:22:30.946Z,8.17
2022-11-26T09:25:35.285Z,8.13
2022-11-26T09:28:39.293Z,7.77
2022-11-26T09:32:07.624Z,7.97
2022-11-26T09:35:06.680Z,7.97
2022-11-26T09:38:09.595Z,7.60
2022-11-26T09:41:24.727Z,7.17
2022-11-26T09:44:37.734Z,7.53
2022-11-26T09:47:43.546Z,6.87
2022-11-26T09:50:48.732Z,7.23
2022-11-26T09:53:52.522Z,7.37
2022-11-26T09:57:03.244Z,7.87
2022-11-26T10:00:09.419Z,6.83
2022-11-26T10:03:15.915Z,6.23
2022-11-26T10:06:31.634Z,6.87
2022-11-26T10:09:50.493Z,6.57
2022-11-26T10:13:18.619Z,6.47
2022-11-26T10:16:28.854Z,6.10
2022-11-26T10:19:40.990Z,7.73
2022-11-26T10:22:56.946Z,6.80
2022-11-26T10:26:08.883Z,6.33
2022-11-26T10:29:22.973Z,6.33
2022-11-26T10:32:27.421Z,5.93
2022-11-26T10:35:31.031Z,6.30
2022-11-26T10:38:34.010Z,6.70
2022-11-26T10:41:38.612Z,6.23
2022-11-26T10:44:43.100Z,5.70
2022-11-26T10:47:46.113Z,6.20
2022-11-26T10:51:06.099Z,5.60
2022-11-26T10:54:25.004Z,6.30
2022-11-26T10:57:28.142Z,5.80
2022-11-26T11:00:38.680Z,6.43
2022-11-26T11:07:30.008Z,5.67
2022-11-26T11:10:33.008Z,5.03
2022-11-26T11:13:43.359Z,5.37
2022-11-26T11:16:47.794Z,5.70
2022-11-26T11:19:50.772Z,6.30
2022-11-26T11:23:01.109Z,5.87
2022-11-26T11:26:06.634Z,6.03
2022-11-26T11:29:26.509Z,6.63
2022-11-26T11:32:35.543Z,6.57
2022-11-26T11:35:38.599Z,6.43
2022-11-26T11:38:48.781Z,7.40
2022-11-26T11:41:51.893Z,7.47
2022-11-26T11:44:55.466Z,7.97
2022-11-26T11:48:06.313Z,7.63
2022-11-26T11:51:20.710Z,8.80
2022-11-26T11:54:30.540Z,7.77
2022-11-26T11:57:45.702Z,7.93
2022-11-26T12:00:53.477Z,8.40
2022-11-26T12:04:18.122Z,8.77
2022-11-26T12:07:37.507Z,8.73
2022-11-26T12:10:47.900Z,9.63
2022-11-26T12:13:55.724Z,9.33
2022-11-26T12:17:04.410Z,8.53
2022-11-26T12:20:20.424Z,8.20
2022-11-26T12:23:33.260Z,9.70
2022-11-26T12:26:39.830Z,10.13
2022-11-26T12:29:46.916Z,9.73
2022-11-26T12:32:53.804Z,10.27
2022-11-26T12:36:01.400Z,9.90
2022-11-26T12:39:07.937Z,9.87
2022-11-26T12:42:17.577Z,8.67
2022-11-26T12:45:32.934Z,10.00
2022-11-26T12:48:44.352Z,9.47
2022-11-26T12:51:54.383Z,8.70
2022-11-26T12:55:04.546Z,9.60
2022-11-26T12:58:13.692Z,10.27
2022-11-26T13:01:17.075Z,9.30
2022-11-26T13:04:37.380Z,9.20
2022-11-26T13:08:04.554Z,8.13
2022-11-26T13:11:27.813Z,8.70
2022-11-26T13:14:40.571Z,8.43
2022-11-26T13:17:46.669Z,8.27
2022-11-26T13:21:03.531Z,8.67
2022-11-26T13:24:27.141Z,9.13
2022-11-26T13:27:45.005Z,8.70
2022-11-26T13:30:58.663Z,9.23
2022-11-26T13:34:23.371Z,8.57
2022-11-26T13:37:43.995Z,9.53
2022-11-26T13:41:05.979Z,8.73
2022-11-26T13:44:36.051Z,8.20
2022-11-26T13:47:44.310Z,9.30
2022-11-26T13:50:53.359Z,9.20
2022-11-26T13:54:02.350Z,9.30
2022-11-26T13:57:10.623Z,9.60
2022-11-26T14:00:25.241Z,9.33
2022-11-26T14:03:45.594Z,9.33
2022-11-26T14:07:19.641Z,9.23
2022-11-26T14:10:46.539Z,9.23
2022-11-26T14:14:29.571Z,8.87
2022-11-26T14:17:56.269Z,9.00
2022-11-26T14:21:14.580Z,9.67
2022-11-26T14:24:54.643Z,9.37
2022-11-26T14:27:59.094Z,10.87
2022-11-26T14:31:15.123Z,9.50
2022-11-26T14:34:23.259Z,10.23
2022-11-26T14:37:28.729Z,10.60
2022-11-26T14:40:33.773Z,10.07
2022-11-26T14:43:36.724Z,10.90
2022-11-26T14:46:42.602Z,9.77
2022-11-26T14:49:50.713Z,10.77
2022-11-26T14:52:59.410Z,9.90
2022-11-26T14:56:03.768Z,10.07
2022-11-26T14:59:07.712Z,9.80
2022-11-26T15:02:23.076Z,8.77
2022-11-26T15:05:28.025Z,9.37
2022-11-26T15:08:30.967Z,9.47
2022-11-26T15:11:36.975Z,9.33
2022-11-26T15:14:43.851Z,9.07
2022-11-26T15:17:52.965Z,9.10
2022-11-26T15:20:57.226Z,10.30
2022-11-26T15:24:03.973Z,9.40
2022-11-26T15:27:06.915Z,10.03
2022-11-26T15:30:20.776Z,10.17
2022-11-26T15:33:26.317Z,9.20
2022-11-26T15:36:29.323Z,10.67
2022-11-26T15:39:32.869Z,10.93
2022-11-26T15:42:36.067Z,11.40
2022-11-26T15:45:41.716Z,11.73
2022-11-26T15:48:53.396Z,11.67
2022-11-26T15:51:58.672Z,11.50
2022-11-26T15:55:12.479Z,11.20
2022-11-26T15:58:21.237Z,11.80
2022-11-26T16:01:33.718Z,12.97
2022-11-26T16:04:43.213Z,12.13
2022-11-26T16:07:57.793Z,11.17
2022-11-26T16:11:08.259Z,11.43
2022-11-26T16:14:34.515Z,11.47
2022-11-26T16:17:37.966Z,11.57
2022-11-26T16:20:42.317Z,11.73
2022-11-26T16:23:52.127Z,12.83
2022-11-26T16:26:57.494Z,13.10
2022-11-26T16:30:02.387Z,12.93
2022-11-26T16:33:06.015Z,13.07
2022-11-26T16:36:22.973Z,13.90
2022-11-26T16:39:29.991Z,12.50
2022-11-26T16:42:33.992Z,13.50
2022-11-26T16:45:37.358Z,14.17
2022-11-26T16:48:41.311Z,14.20
2022-11-26T16:51:45.604Z,13.77
2022-11-26T16:54:49.222Z,13.50
2022-11-26T16:57:54.432Z,13.40
2022-11-26T17:00:58.104Z,11.87
2022-11-26T17:04:01.021Z,14.27
2022-11-26T17:07:05.388Z,11.47
2022-11-26T17:10:14.486Z,11.17
2022-11-26T17:13:17.761Z,12.17
2022-11-26T17:16:22.697Z,13.17
2022-11-26T17:19:25.741Z,11.53
2022-11-26T17:22:30.057Z,12.90
2022-11-26T17:25:32.969Z,11.37
2022-11-26T17:28:35.918Z,12.17
2022-11-26T17:31:38.952Z,12.27
2022-11-26T17:34:42.134Z,11.87
2022-11-26T17:37:46.750Z,11.40
2022-11-26T17:40:50.006Z,12.80
2022-11-26T17:43:52.937Z,12.30
2022-11-26T17:47:16.704Z,11.33
2022-11-26T17:50:21.613Z,12.03
2022-11-26T17:53:25.913Z,12.07
2022-11-26T17:56:29.121Z,12.07
2022-11-26T17:59:32.493Z,10.80
2022-11-26T18:02:35.500Z,12.40
2022-11-26T18:05:41.979Z,11.90
2022-11-26T18:08:47.105Z,11.50
2022-11-26T18:11:51.665Z,11.70
2022-11-26T18:14:55.279Z,12.73
2022-11-26T18:17:58.236Z,12.07
2022-11-26T18:21:01.152Z,12.33
2022-11-26T18:24:06.733Z,11.93
2022-11-26T18:27:09.699Z,12.17
2022-11-26T18:30:13.260Z,11.13
2022-11-26T18:33:16.870Z,12.80
2022-11-26T18:36:19.998Z,11.57
2022-11-26T18:39:24.357Z,13.40
2022-11-26T18:42:36.960Z,12.70
2022-11-26T18:45:43.103Z,12.07
2022-11-26T18:48:47.583Z,11.47
2022-11-26T18:51:50.497Z,11.57
2022-11-26T18:54:54.861Z,12.30
2022-11-26T18:57:57.842Z,11.37
2022-11-26T19:01:00.866Z,11.93
2022-11-26T19:04:04.118Z,12.53
2022-11-26T19:07:07.064Z,11.00
2022-11-26T19:10:12.667Z,11.27
2022-11-26T19:13:15.661Z,11.87
2022-11-26T19:16:20.733Z,13.00
2022-11-26T19:19:23.757Z,12.47
2022-11-26T19:22:26.713Z,11.83
2022-11-26T19:25:31.569Z,12.40
2022-11-26T19:28:34.546Z,12.03
2022-11-26T19:31:39.627Z,12.07
2022-11-26T19:34:42.583Z,12.47
2022-11-26T19:37:45.545Z,13.40
2022-11-26T19:40:55.845Z,12.90
2022-11-26T19:44:01.193Z,14.07
2022-11-26T19:47:04.670Z,13.03
2022-11-26T19:50:09.325Z,13.20
2022-11-26T19:53:12.274Z,12.27
2022-11-26T19:56:18.731Z,13.73
2022-11-26T19:59:21.682Z,12.23
2022-11-26T20:02:24.763Z,13.23
2022-11-26T20:05:27.780Z,14.50
2022-11-26T20:08:30.728Z,14.83
2022-11-26T20:11:38.421Z,14.93
2022-11-26T20:14:41.452Z,13.90
2022-11-26T20:17:44.389Z,13.90
2022-11-26T20:20:58.457Z,14.43
2022-11-26T20:24:07.513Z,13.50
2022-11-26T20:27:11.969Z,12.60
2022-11-26T20:30:15.256Z,14.40
2022-11-26T20:33:18.934Z,12.93
2022-11-26T20:36:22.987Z,12.43
2022-11-26T20:39:26.361Z,13.07
2022-11-26T20:42:30.636Z,15.07
2022-11-26T20:45:33.693Z,13.30
2022-11-26T20:48:38.267Z,12.60
2022-11-26T20:51:41.262Z,13.77
2022-11-26T20:54:44.455Z,12.67
2022-11-26T20:57:50.236Z,11.87
2022-11-26T21:00:54.166Z,12.37
2022-11-26T21:03:58.069Z,12.17
2022-11-26T21:07:01.014Z,12.90
2022-11-26T21:10:04.410Z,13.13
2022-11-26T21:13:09.395Z,11.77
2022-11-26T21:16:16.463Z,12.57
2022-11-26T21:19:19.665Z,12.60
2022-11-26T21:22:22.660Z,10.97
2022-11-26T21:25:25.826Z,12.90
2022-11-26T21:28:30.102Z,11.60
2022-11-26T21:31:33.418Z,11.87
2022-11-26T21:34:36.380Z,11.30
2022-11-26T21:37:39.292Z,11.27
2022-11-26T21:40:42.216Z,11.60
2022-11-26T21:43:47.028Z,12.37
2022-11-26T21:46:50.102Z,11.20
2022-11-26T21:49:53.021Z,10.43
2022-11-26T21:52:55.950Z,11.40
2022-11-26T21:56:05.450Z,12.17
2022-11-26T21:59:10.727Z,10.67
2022-11-26T22:02:13.948Z,10.33
2022-11-26T22:05:17.015Z,12.10
2022-11-26T22:08:20.100Z,10.90
2022-11-26T22:11:24.974Z,11.40
2022-11-26T22:14:29.281Z,11.73
2022-11-26T22:17:32.221Z,10.53
2022-11-26T22:20:35.168Z,10.87
2022-11-26T22:23:38.196Z,10.77
2022-11-26T22:26:41.146Z,11.27
2022-11-26T22:29:45.421Z,11.20
2022-11-26T22:32:48.400Z,11.63
2022-11-26T22:35:51.346Z,11.13
2022-11-26T22:38:54.417Z,10.73
2022-11-26T22:41:57.376Z,12.20
2022-11-26T22:45:01.660Z,11.03
2022-11-26T22:48:05.053Z,10.90
2022-11-26T22:51:09.124Z,11.73
2022-11-26T22:54:15.348Z,11.47
2022-11-26T22:57:23.808Z,10.67
2022-11-26T23:00:50.158Z,10.53
2022-11-26T23:03:54.102Z,11.10
2022-11-26T23:06:57.089Z,10.90
2022-11-26T23:10:00.000Z,10.87
2022-11-26T23:13:03.179Z,10.60
2022-11-26T23:16:09.887Z,10.67
2022-11-26T23:19:15.399Z,10.27
2022-11-26T23:22:18.316Z,9.27
2022-11-26T23:25:21.270Z,10.30
2022-11-26T23:28:24.237Z,8.87
2022-11-26T23:31:30.980Z,9.00
2022-11-26T23:34:33.982Z,10.13
2022-11-26T23:37:37.124Z,9.27
2022-11-26T23:40:40.065Z,9.47
2022-11-26T23:43:43.607Z,8.43
2022-11-26T23:46:47.919Z,8.10
2022-11-26T23:49:50.942Z,9.07
2022-11-26T23:52:53.867Z,8.33
2022-11-26T23:56:02.835Z,7.77
2022-11-26T23:59:06.146Z,9.20
